EHEHLFMP

Guest
Details From EHEH - Eindhoven
To LFMP - Rivesaltes
Flight Number -
Tags Generated
Created
Modified
Stats Distance 532 nm / 986 km
Max Altitude 0 ft / 0 m
Waypoints 4
Social Downloads 1
Likes 0
Share VATSIM

Download

Looking for another format? Having issues loading an existing format? Contact us
Advertisement - Login to hide

Notes

Generated

Route

EHEH CACHI PPG LFMP

ID Type Via Altitude Latitude Longitude Leg Dist Tot Dist Heading (true) Name
O EHEH APT - 0 ft / 0 m 51.43909˚ 5.36214˚ - 0 nm - -
CACHI FIX - 0 ft / 0 m 47.06667˚ 4.10667˚ 267 nm 267 nm 191° / 190° -
PPG VOR - 0 ft / 0 m 42.75047˚ 2.86714˚ 264 nm 531 nm 192° / 191° PERPIGNAN RIVESALTES VOR-DME
O LFMP APT - 0 ft / 0 m 42.73990˚ 2.86519˚ 0 nm 532 nm 188° / 188° Rivesaltes

Altitude Profile

Advertisement - Login to hide

Weather


0- 5 10 15 20 25 30 35+ Temperature / ° C

Clouds and Precipitation
Forecast for 2018-05-20 12:00 UTC. Updated an hour ago

Ground ~20,000 ft ~40,000 ft Winds

EHEH

Details ICAO EHEH (EIN)
Name Eindhoven
Region Netherlands
Timezone Europe/Amsterdam (UTC+2.0)
Stats Elevation 74 ft / 23 m (AMSL)
Location 51.450133° 5.374513°
Runways 1
Magnetic Variation 1.431° E

METAR

EHEH 201225Z AUTO VRB06KT 9999 NCD 23/10 Q1021 BLU 05006KT CAVOK

Decode

TAF

TAF EHEH 201154Z 2012/2118 08007KT 9999 FEW045 PROB30 TEMPO 2016/2022 09010G25KT 4000 SHRA TSRA SCT050CB BKN070 TEMPO 2110/2116 12010G20KT PROB40 TEMPO 2115/2118 16012G25KT 4000 SHRA TSRA SCT040CB BKN070

Decode

Departure Runways

ID Width Length Bearing (true) Bearing (mag) Surface Threshold Offset Overrun Length
03 148 ft / 45 m 9,832 ft / 2,997 m 34.92° 33.49° Asphalt 821 ft / 250 m 0 ft / 0 m
21 148 ft / 45 m 9,832 ft / 2,997 m 214.94° 213.51° Asphalt 821 ft / 250 m 0 ft / 0 m

LFMP

Details ICAO LFMP (PGF)
Name Rivesaltes
Region France
Timezone Europe/Paris (UTC+2.0)
Stats Elevation 143 ft / 44 m (AMSL)
Location 42.740488° 2.870594°
Runways 2
Magnetic Variation 1.040° E

METAR

LFMP 201230Z AUTO 10010KT 9999 ///CB 25/11 Q1014 TEMPO SHRA

Decode

TAF

TAF AMD LFMP 201218Z 2012/2109 VRB03KT CAVOK TEMPO 2012/2018 SHRA SCT035TCU PROB30 TEMPO 2013/2018 TS SCT030CB BECMG 2022/2024 09010KT

Decode

Destination Runways

ID Width Length Bearing (true) Bearing (mag) Surface Threshold Offset Overrun Length
13 66 ft / 20 m 4,231 ft / 1,290 m 127.54° 126.50° Asphalt 492 ft / 150 m 0 ft / 0 m
15 148 ft / 45 m 8,189 ft / 2,496 m 148.38° 147.34° Asphalt 0 ft / 0 m 230 ft / 70 m
31 66 ft / 20 m 4,231 ft / 1,290 m 307.55° 306.51° Asphalt 1,148 ft / 350 m 0 ft / 0 m
33 148 ft / 45 m 8,189 ft / 2,496 m 328.39° 327.35° Asphalt 558 ft / 170 m 230 ft / 70 m

Approach Navaids

Runway Type Ident Frequency Range Bearing (true) Bearing (mag) Slope Elevation
33 Localiser PL 111.75 MHz 18 nm / 33 km 328.30° 327.26° - 124 ft / 38 m (AMSL)
33 Glidescope PL 111.75 MHz 10 nm / 19 km 328.38° 327.35° 3.00° 124 ft / 38 m (AMSL)
33 DME PL 111.75 MHz 18 nm / 33 km - - - 183 ft / 56 m (AMSL)